createdAt,value
2022-08-16T00:00:04.417Z,99.90
2022-08-16T00:02:33.580Z,99.90
2022-08-16T00:05:01.392Z,99.90
2022-08-16T00:07:29.835Z,99.90
2022-08-16T00:09:58.014Z,99.90
2022-08-16T00:12:28.157Z,99.90
2022-08-16T00:14:57.350Z,99.90
2022-08-16T00:17:28.263Z,99.90
2022-08-16T00:19:56.204Z,99.90
2022-08-16T00:22:27.957Z,99.90
2022-08-16T00:24:55.593Z,99.90
2022-08-16T00:27:23.341Z,99.90
2022-08-16T00:30:00.553Z,99.90
2022-08-16T00:32:32.788Z,99.90
2022-08-16T00:35:00.638Z,99.90
2022-08-16T00:37:56.842Z,99.90
2022-08-16T00:40:35.019Z,99.90
2022-08-16T00:43:16.876Z,99.90
2022-08-16T00:46:22.395Z,99.90
2022-08-16T00:48:55.224Z,99.90
2022-08-16T00:51:25.253Z,99.90
2022-08-16T00:53:56.877Z,99.90
2022-08-16T00:56:56.003Z,99.90
2022-08-16T00:59:24.715Z,99.90
2022-08-16T01:01:53.061Z,99.90
2022-08-16T01:04:29.033Z,99.90
2022-08-16T01:07:01.118Z,99.90
2022-08-16T01:09:33.475Z,99.90
2022-08-16T01:12:03.743Z,99.90
2022-08-16T01:14:39.262Z,99.90
2022-08-16T01:17:12.642Z,99.90
2022-08-16T01:19:45.671Z,99.90
2022-08-16T01:22:48.280Z,99.90
2022-08-16T01:25:36.293Z,99.90
2022-08-16T01:28:09.755Z,99.90
2022-08-16T01:30:49.828Z,99.90
2022-08-16T01:33:19.583Z,99.90
2022-08-16T01:36:09.467Z,99.90
2022-08-16T01:38:49.082Z,99.90
2022-08-16T01:41:26.186Z,99.90
2022-08-16T01:44:01.138Z,99.90
2022-08-16T01:46:40.108Z,99.90
2022-08-16T01:49:18.852Z,99.90
2022-08-16T01:51:50.736Z,99.90
2022-08-16T01:54:17.983Z,99.90
2022-08-16T01:56:58.687Z,99.90
2022-08-16T01:59:27.246Z,99.90
2022-08-16T02:01:59.916Z,99.90
2022-08-16T02:04:48.665Z,99.90
2022-08-16T02:07:18.532Z,99.90
2022-08-16T02:09:57.435Z,99.90
2022-08-16T02:12:50.425Z,99.90
2022-08-16T02:15:16.922Z,99.90
2022-08-16T02:17:44.178Z,99.90
2022-08-16T02:20:12.645Z,99.90
2022-08-16T02:22:40.029Z,99.90
2022-08-16T02:25:14.753Z,99.90
2022-08-16T02:27:44.422Z,99.90
2022-08-16T02:30:37.215Z,99.90
2022-08-16T02:33:10.341Z,99.90
2022-08-16T02:35:53.765Z,99.90
2022-08-16T02:38:22.698Z,99.90
2022-08-16T02:40:50.035Z,99.90
2022-08-16T02:43:17.107Z,99.90
2022-08-16T02:45:44.363Z,99.90
2022-08-16T02:48:28.925Z,99.90
2022-08-16T02:51:06.056Z,99.90
2022-08-16T02:53:43.058Z,99.90
2022-08-16T02:56:15.140Z,99.90
2022-08-16T02:58:49.372Z,99.90
2022-08-16T03:01:25.021Z,99.90
2022-08-16T03:04:30.017Z,99.90
2022-08-16T03:06:56.368Z,99.90
2022-08-16T03:09:25.279Z,99.90
2022-08-16T03:11:57.131Z,99.90
2022-08-16T03:14:25.420Z,99.90
2022-08-16T03:16:59.374Z,99.90
2022-08-16T03:19:48.292Z,99.90
2022-08-16T03:22:27.940Z,99.90
2022-08-16T03:24:58.333Z,99.90
2022-08-16T03:27:31.221Z,99.90
2022-08-16T03:30:16.420Z,99.90
2022-08-16T03:32:47.170Z,99.90
2022-08-16T03:35:17.559Z,99.90
2022-08-16T03:38:02.781Z,99.90
2022-08-16T03:40:33.994Z,99.90
2022-08-16T03:43:20.118Z,99.90
2022-08-16T03:45:49.180Z,99.90
2022-08-16T03:48:20.918Z,99.90
2022-08-16T03:51:08.503Z,99.90
2022-08-16T03:53:37.410Z,99.90
2022-08-16T03:56:07.977Z,99.90
2022-08-16T03:58:50.936Z,99.90
2022-08-16T04:01:24.417Z,99.90
2022-08-16T04:03:57.659Z,99.90
2022-08-16T04:06:24.809Z,99.90
2022-08-16T04:08:52.000Z,99.90
2022-08-16T04:11:20.140Z,99.90
2022-08-16T04:13:59.962Z,99.90
2022-08-16T04:16:35.304Z,99.90
2022-08-16T04:19:04.590Z,99.90
2022-08-16T04:21:34.410Z,99.90
2022-08-16T04:24:08.062Z,99.90
2022-08-16T04:26:35.703Z,99.90
2022-08-16T04:29:16.334Z,99.90
2022-08-16T04:31:46.851Z,99.90
2022-08-16T04:34:28.277Z,99.90
2022-08-16T04:36:56.997Z,99.90
2022-08-16T04:39:37.085Z,99.90
2022-08-16T04:42:12.509Z,99.90
2022-08-16T04:44:53.330Z,99.90
2022-08-16T04:47:32.860Z,99.90
2022-08-16T04:50:02.043Z,99.90
2022-08-16T04:52:34.468Z,99.90
2022-08-16T04:55:08.056Z,99.90
2022-08-16T04:57:35.151Z,99.90
2022-08-16T05:00:32.181Z,99.90
2022-08-16T05:02:56.425Z,99.90
2022-08-16T05:05:32.639Z,99.90
2022-08-16T05:08:29.764Z,99.90
2022-08-16T05:10:51.003Z,99.90
2022-08-16T05:13:19.182Z,99.90
2022-08-16T05:15:47.246Z,99.90
2022-08-16T05:18:18.284Z,99.90
2022-08-16T05:20:54.256Z,99.90
2022-08-16T05:23:31.821Z,99.90
2022-08-16T05:26:00.515Z,99.90
2022-08-16T05:28:30.921Z,99.90
2022-08-16T05:31:06.827Z,99.90
2022-08-16T05:33:34.065Z,99.90
2022-08-16T05:36:03.769Z,99.90
2022-08-16T05:38:38.930Z,99.90
2022-08-16T05:41:09.478Z,99.90
2022-08-16T05:43:43.378Z,99.90
2022-08-16T05:46:28.888Z,99.90
2022-08-16T05:49:04.028Z,99.90
2022-08-16T05:51:39.969Z,99.90
2022-08-16T05:54:09.597Z,99.90
2022-08-16T05:56:39.901Z,99.90
2022-08-16T05:59:07.583Z,99.90
2022-08-16T06:01:38.401Z,99.90
2022-08-16T06:04:13.567Z,99.90
2022-08-16T06:06:57.865Z,99.90
2022-08-16T06:09:42.840Z,99.90
2022-08-16T06:12:26.889Z,99.90
2022-08-16T06:14:59.092Z,99.90
2022-08-16T06:17:42.951Z,99.90
2022-08-16T06:20:35.337Z,99.90
2022-08-16T06:23:17.187Z,99.90
2022-08-16T06:25:53.300Z,99.90
2022-08-16T06:28:34.869Z,99.90
2022-08-16T06:31:06.421Z,99.90
2022-08-16T06:33:41.176Z,99.90
2022-08-16T06:36:09.748Z,99.90
2022-08-16T06:38:38.528Z,99.90
2022-08-16T06:41:23.429Z,99.90
2022-08-16T06:43:55.014Z,99.90
2022-08-16T06:46:35.279Z,99.90
2022-08-16T06:49:11.014Z,99.90
2022-08-16T06:51:46.572Z,99.90
2022-08-16T06:54:16.565Z,99.90
2022-08-16T06:56:43.620Z,99.90
2022-08-16T06:59:11.138Z,99.90
2022-08-16T07:01:43.080Z,99.90
2022-08-16T07:04:32.445Z,99.90
2022-08-16T07:07:02.875Z,99.90
2022-08-16T07:09:30.634Z,99.90
2022-08-16T07:12:03.246Z,99.90
2022-08-16T07:14:33.165Z,99.90
2022-08-16T07:17:00.200Z,99.90
2022-08-16T07:20:01.323Z,99.90
2022-08-16T07:22:37.720Z,99.90
2022-08-16T07:25:08.353Z,99.90
2022-08-16T07:27:37.736Z,99.90
2022-08-16T07:30:46.034Z,99.90
2022-08-16T07:32:56.889Z,99.90
2022-08-16T07:35:24.913Z,99.90
2022-08-16T07:37:52.173Z,99.90
2022-08-16T07:40:19.260Z,99.90
2022-08-16T07:42:52.683Z,99.90
2022-08-16T07:45:20.184Z,99.90
2022-08-16T07:47:47.463Z,99.90
2022-08-16T07:50:56.041Z,99.90
2022-08-16T07:53:06.265Z,99.90
2022-08-16T07:55:45.666Z,99.90
2022-08-16T07:58:18.153Z,99.90
2022-08-16T08:00:46.104Z,99.90
2022-08-16T08:03:13.067Z,99.90
2022-08-16T08:05:43.371Z,99.90
2022-08-16T08:08:11.749Z,99.90
2022-08-16T08:10:57.743Z,99.90
2022-08-16T08:13:42.218Z,99.90
2022-08-16T08:16:18.915Z,99.90
2022-08-16T08:18:56.158Z,99.90
2022-08-16T08:22:00.049Z,99.90
2022-08-16T08:24:15.610Z,99.90
2022-08-16T08:26:43.228Z,99.90
2022-08-16T08:29:12.034Z,99.90
2022-08-16T08:31:42.419Z,99.90
2022-08-16T08:34:12.827Z,99.90
2022-08-16T08:36:40.207Z,99.90
2022-08-16T08:39:13.091Z,99.90
2022-08-16T08:41:42.340Z,99.90
2022-08-16T08:44:28.866Z,99.90
2022-08-16T08:47:04.782Z,99.90
2022-08-16T08:49:46.308Z,99.90
2022-08-16T08:52:35.274Z,99.90
2022-08-16T08:55:10.954Z,99.90
2022-08-16T08:57:46.644Z,99.90
2022-08-16T09:00:17.798Z,99.90
2022-08-16T09:02:52.114Z,99.90
2022-08-16T09:05:22.143Z,99.90
2022-08-16T09:08:01.813Z,99.90
2022-08-16T09:10:33.821Z,99.90
2022-08-16T09:13:02.219Z,99.90
2022-08-16T09:15:33.108Z,99.90
2022-08-16T09:18:25.083Z,99.90
2022-08-16T09:20:58.389Z,99.90
2022-08-16T09:23:27.157Z,99.90
2022-08-16T09:25:54.869Z,99.90
2022-08-16T09:29:13.509Z,99.90
2022-08-16T09:31:10.794Z,99.90
2022-08-16T09:33:39.314Z,99.90
2022-08-16T09:36:11.830Z,99.90
2022-08-16T09:39:00.018Z,99.90
2022-08-16T09:41:28.165Z,99.90
2022-08-16T09:43:59.749Z,99.90
2022-08-16T09:46:45.635Z,99.90
2022-08-16T09:49:19.818Z,99.90
2022-08-16T09:51:53.678Z,99.90
2022-08-16T09:54:25.474Z,99.90
2022-08-16T09:57:00.171Z,99.90
2022-08-16T09:59:30.440Z,99.90
2022-08-16T10:01:58.724Z,99.90
2022-08-16T10:04:33.173Z,99.90
2022-08-16T10:07:15.676Z,99.90
2022-08-16T10:09:54.622Z,99.90
2022-08-16T10:12:55.756Z,99.90
2022-08-16T10:15:24.458Z,99.90
2022-08-16T10:18:01.134Z,99.90
2022-08-16T10:20:33.921Z,99.90
2022-08-16T10:23:07.089Z,99.90
2022-08-16T10:27:17.502Z,99.90
2022-08-16T10:28:32.173Z,99.90
2022-08-16T10:31:06.844Z,99.90
2022-08-16T10:33:35.096Z,99.90
2022-08-16T10:36:09.041Z,99.90
2022-08-16T10:38:39.889Z,99.90
2022-08-16T10:41:10.753Z,99.90
2022-08-16T10:43:43.386Z,99.90
2022-08-16T10:46:39.379Z,99.90
2022-08-16T10:49:00.903Z,99.90
2022-08-16T10:51:34.254Z,99.90
2022-08-16T10:54:28.630Z,99.90
2022-08-16T10:56:59.035Z,99.90
2022-08-16T10:59:38.516Z,99.90
2022-08-16T11:02:59.579Z,99.90
2022-08-16T11:05:06.529Z,99.90
2022-08-16T11:07:52.279Z,99.90
2022-08-16T11:17:02.639Z,99.90
2022-08-16T11:19:05.463Z,99.90
2022-08-16T11:22:22.892Z,99.90
2022-08-16T11:24:42.797Z,99.90
2022-08-16T11:27:19.634Z,99.90
2022-08-16T11:29:52.234Z,99.90
2022-08-16T11:32:29.683Z,99.90
2022-08-16T11:35:14.299Z,99.90
2022-08-16T11:40:58.150Z,99.90
2022-08-16T11:43:33.295Z,99.90
2022-08-16T11:46:43.805Z,99.90
2022-08-16T11:48:53.988Z,99.90
2022-08-16T11:51:21.505Z,99.90
2022-08-16T11:53:48.465Z,99.90
2022-08-16T11:56:16.217Z,99.90
2022-08-16T11:58:51.792Z,99.90
2022-08-16T12:01:29.905Z,99.90
2022-08-16T12:04:13.361Z,99.90
2022-08-16T12:06:40.894Z,99.90
2022-08-16T12:09:08.488Z,99.90
2022-08-16T12:11:37.951Z,99.90
2022-08-16T12:14:07.344Z,99.90
2022-08-16T12:16:35.654Z,97.70
2022-08-16T12:19:10.571Z,95.80
2022-08-16T12:21:58.394Z,94.40
2022-08-16T12:24:27.712Z,93.40
2022-08-16T12:26:55.550Z,92.30
2022-08-16T12:29:23.297Z,91.20
2022-08-16T12:32:00.839Z,90.40
2022-08-16T12:34:50.489Z,89.60
2022-08-16T12:37:20.836Z,88.40
2022-08-16T12:39:50.809Z,87.30
2022-08-16T12:42:20.395Z,87.30
2022-08-16T12:44:50.185Z,86.20
2022-08-16T12:47:36.884Z,85.20
2022-08-16T12:50:07.646Z,83.60
2022-08-16T12:52:52.185Z,81.70
2022-08-16T12:55:20.862Z,80.70
2022-08-16T12:57:57.879Z,80.20
2022-08-16T13:00:33.127Z,78.90
2022-08-16T13:03:03.193Z,78.40
2022-08-16T13:08:03.606Z,77.00
2022-08-16T13:10:37.646Z,75.90
2022-08-16T13:13:08.942Z,75.10
2022-08-16T13:15:57.204Z,74.50
2022-08-16T13:18:33.877Z,74.70
2022-08-16T13:21:04.970Z,73.60
2022-08-16T13:23:33.292Z,73.00
2022-08-16T13:26:04.453Z,75.00
2022-08-16T13:28:32.389Z,75.00
2022-08-16T13:31:01.205Z,76.40
2022-08-16T13:33:37.162Z,77.10
2022-08-16T13:36:08.413Z,77.90
2022-08-16T13:38:49.303Z,77.70
2022-08-16T13:41:19.456Z,76.80
2022-08-16T13:43:46.492Z,76.30
2022-08-16T13:46:26.259Z,76.20
2022-08-16T13:48:53.633Z,76.20
2022-08-16T13:51:23.812Z,75.90
2022-08-16T13:53:59.163Z,75.50
2022-08-16T13:56:36.841Z,75.20
2022-08-16T13:59:06.505Z,75.50
2022-08-16T14:01:54.738Z,75.30
2022-08-16T14:04:26.559Z,74.40
2022-08-16T14:06:57.813Z,74.40
2022-08-16T14:09:27.168Z,74.70
2022-08-16T14:12:00.728Z,74.70
2022-08-16T14:14:30.015Z,74.00
2022-08-16T14:17:02.179Z,74.80
2022-08-16T14:19:30.142Z,74.70
2022-08-16T14:22:15.491Z,75.00
2022-08-16T14:24:50.191Z,75.80
2022-08-16T14:27:21.368Z,76.10
2022-08-16T14:29:51.249Z,76.10
2022-08-16T14:32:34.378Z,76.20
2022-08-16T14:35:08.429Z,76.60
2022-08-16T14:37:37.229Z,77.40
2022-08-16T14:40:09.763Z,78.00
2022-08-16T14:42:38.182Z,78.40
2022-08-16T14:45:07.588Z,79.10
2022-08-16T14:47:37.404Z,78.80
2022-08-16T14:50:07.934Z,78.70
2022-08-16T14:52:54.587Z,78.80
2022-08-16T14:55:23.412Z,78.60
2022-08-16T14:57:52.863Z,78.30
2022-08-16T15:00:27.167Z,77.30
2022-08-16T15:03:03.029Z,77.30
2022-08-16T15:05:32.106Z,77.50
2022-08-16T15:07:59.991Z,78.10
2022-08-16T15:10:29.392Z,77.30
2022-08-16T15:13:01.157Z,76.40
2022-08-16T15:15:30.486Z,75.70
2022-08-16T15:17:59.233Z,75.80
2022-08-16T15:20:33.074Z,76.70
2022-08-16T15:23:03.290Z,78.10
2022-08-16T15:25:43.655Z,79.80
2022-08-16T15:28:30.557Z,80.90
2022-08-16T15:31:03.461Z,81.90
2022-08-16T15:33:34.216Z,82.40
2022-08-16T15:36:03.565Z,83.70
2022-08-16T15:38:57.786Z,85.00
2022-08-16T15:41:42.555Z,86.20
2022-08-16T15:44:21.290Z,87.40
2022-08-16T15:46:55.805Z,86.60
2022-08-16T15:49:37.613Z,87.20
2022-08-16T15:52:24.990Z,87.10
2022-08-16T15:54:59.392Z,87.90
2022-08-16T15:57:28.763Z,87.10
2022-08-16T16:00:14.942Z,86.70
2022-08-16T16:02:43.166Z,86.50
2022-08-16T16:05:10.610Z,85.50
2022-08-16T16:07:39.416Z,84.80
2022-08-16T16:10:13.030Z,84.20
2022-08-16T16:12:52.896Z,84.10
2022-08-16T16:15:25.278Z,84.10
2022-08-16T16:17:53.624Z,84.90
2022-08-16T16:20:27.142Z,84.20
2022-08-16T16:23:01.628Z,85.50
2022-08-16T16:25:30.124Z,86.50
2022-08-16T16:27:59.581Z,88.00
2022-08-16T16:30:37.181Z,88.60
2022-08-16T16:33:21.143Z,89.20
2022-08-16T16:35:55.322Z,89.80
2022-08-16T16:38:31.227Z,90.10
2022-08-16T16:41:08.931Z,90.40
2022-08-16T16:43:41.166Z,90.80
2022-08-16T16:46:40.259Z,91.30
2022-08-16T16:48:55.737Z,91.80
2022-08-16T16:51:23.238Z,92.00
2022-08-16T16:53:56.068Z,92.70
2022-08-16T16:56:30.254Z,93.30
2022-08-16T16:59:04.658Z,93.80
2022-08-16T17:01:57.431Z,94.40
2022-08-16T17:04:31.598Z,94.80
2022-08-16T17:07:02.133Z,95.00
2022-08-16T17:09:30.935Z,95.40
2022-08-16T17:11:58.990Z,95.70
2022-08-16T17:14:31.864Z,95.80
2022-08-16T17:17:04.091Z,96.50
2022-08-16T17:19:31.932Z,96.80
2022-08-16T17:22:00.542Z,97.20
2022-08-16T17:24:39.378Z,97.70
2022-08-16T17:27:08.271Z,98.20
2022-08-16T17:29:42.915Z,99.30
2022-08-16T17:32:33.914Z,99.40
2022-08-16T17:35:17.866Z,99.80
2022-08-16T17:37:50.874Z,99.90
2022-08-16T17:40:47.426Z,99.90
2022-08-16T17:43:17.271Z,99.90
2022-08-16T17:45:44.545Z,99.90
2022-08-16T17:48:12.288Z,99.90
2022-08-16T17:50:40.920Z,99.90
2022-08-16T17:53:08.892Z,99.90
2022-08-16T17:55:38.354Z,99.90
2022-08-16T17:58:17.575Z,99.90
2022-08-16T18:00:56.521Z,99.90
2022-08-16T18:04:08.570Z,99.90
2022-08-16T18:06:23.004Z,99.90
2022-08-16T18:08:55.893Z,99.90
2022-08-16T18:11:27.828Z,99.90
2022-08-16T18:13:56.493Z,99.90
2022-08-16T18:16:23.860Z,99.90
2022-08-16T18:18:50.916Z,99.90
2022-08-16T18:21:36.741Z,99.90
2022-08-16T18:24:04.255Z,99.90
2022-08-16T18:26:31.420Z,99.90
2022-08-16T18:28:58.628Z,99.90
2022-08-16T18:31:25.709Z,99.90
2022-08-16T18:33:55.657Z,99.90
2022-08-16T18:36:24.019Z,99.90
2022-08-16T18:38:52.770Z,99.90
2022-08-16T18:41:21.641Z,99.90
2022-08-16T18:44:23.827Z,99.90
2022-08-16T18:46:35.602Z,99.90
2022-08-16T18:49:02.518Z,99.90
2022-08-16T18:51:29.393Z,99.90
2022-08-16T18:53:56.243Z,99.90
2022-08-16T18:56:23.253Z,99.90
2022-08-16T18:59:10.103Z,99.90
2022-08-16T19:01:37.018Z,99.90
2022-08-16T19:04:04.276Z,99.90
2022-08-16T19:06:31.141Z,99.90
2022-08-16T19:08:58.009Z,99.90
2022-08-16T19:11:28.322Z,99.90
2022-08-16T19:13:56.967Z,99.90
2022-08-16T19:16:23.895Z,99.90
2022-08-16T19:18:50.801Z,99.90
2022-08-16T19:21:17.726Z,99.90
2022-08-16T19:23:45.186Z,99.90
2022-08-16T19:26:25.972Z,99.90
2022-08-16T19:28:59.123Z,99.90
2022-08-16T19:31:31.451Z,99.90
2022-08-16T19:33:59.061Z,99.90
2022-08-16T19:36:35.468Z,99.90
2022-08-16T19:39:10.019Z,99.90
2022-08-16T19:41:40.723Z,99.90
2022-08-16T19:44:08.221Z,99.90
2022-08-16T19:46:35.950Z,99.90
2022-08-16T19:49:04.948Z,99.90
2022-08-16T19:51:31.891Z,99.90
2022-08-16T19:53:59.207Z,99.90
2022-08-16T19:56:27.015Z,99.90
2022-08-16T20:01:43.796Z,99.90
2022-08-16T20:04:12.787Z,99.90
2022-08-16T20:06:41.583Z,99.90
2022-08-16T20:09:10.489Z,99.90
2022-08-16T20:11:42.005Z,99.90
2022-08-16T20:14:09.097Z,99.90
2022-08-16T20:16:36.246Z,99.90
2022-08-16T20:19:04.374Z,99.90
2022-08-16T20:21:31.673Z,99.90
2022-08-16T20:24:22.776Z,99.90
2022-08-16T20:26:45.685Z,99.90
2022-08-16T20:29:12.879Z,99.90
2022-08-16T20:31:40.045Z,99.90
2022-08-16T20:34:07.153Z,99.90
2022-08-16T20:36:34.079Z,99.90
2022-08-16T20:39:04.136Z,99.90
2022-08-16T20:41:36.711Z,99.90
2022-08-16T20:44:04.104Z,99.90
2022-08-16T20:46:31.005Z,99.90
2022-08-16T20:48:58.228Z,99.90
2022-08-16T20:51:26.284Z,99.90
2022-08-16T20:53:53.458Z,99.90
2022-08-16T20:56:20.573Z,99.90
2022-08-16T20:58:47.801Z,99.90
2022-08-16T21:01:14.942Z,99.90
2022-08-16T21:03:42.079Z,99.90
2022-08-16T21:06:09.029Z,99.90
2022-08-16T21:08:52.131Z,99.90
2022-08-16T21:11:21.773Z,99.90
2022-08-16T21:13:50.516Z,99.90
2022-08-16T21:16:22.447Z,99.90
2022-08-16T21:18:50.410Z,99.90
2022-08-16T21:21:19.807Z,99.90
2022-08-16T21:23:50.100Z,99.90
2022-08-16T21:26:17.053Z,99.90
2022-08-16T21:28:44.720Z,99.90
2022-08-16T21:31:14.177Z,99.90
2022-08-16T21:33:42.585Z,99.90
2022-08-16T21:36:10.982Z,99.90
2022-08-16T21:38:38.557Z,99.90
2022-08-16T21:41:06.845Z,99.90
2022-08-16T21:43:34.396Z,99.90
2022-08-16T21:46:06.446Z,99.90
2022-08-16T21:48:35.863Z,99.90
2022-08-16T21:51:14.820Z,99.90
2022-08-16T21:53:43.512Z,99.90
2022-08-16T21:56:14.966Z,99.90
2022-08-16T21:58:46.191Z,99.90
2022-08-16T22:01:13.448Z,99.90
2022-08-16T22:03:40.668Z,99.90
2022-08-16T22:06:12.074Z,99.90
2022-08-16T22:08:50.623Z,99.90
2022-08-16T22:11:23.972Z,99.90
2022-08-16T22:13:58.995Z,99.90
2022-08-16T22:16:28.790Z,99.90
2022-08-16T22:18:55.929Z,99.90
2022-08-16T22:21:23.646Z,99.90
2022-08-16T22:23:56.981Z,99.90
2022-08-16T22:26:31.842Z,99.90
2022-08-16T22:29:10.692Z,99.90
2022-08-16T22:31:41.300Z,99.90
2022-08-16T22:34:09.064Z,99.90
2022-08-16T22:36:36.560Z,99.90
2022-08-16T22:39:07.347Z,99.90
2022-08-16T22:41:36.383Z,99.90
2022-08-16T22:44:04.869Z,99.90
2022-08-16T22:46:32.601Z,99.90
2022-08-16T22:48:59.559Z,99.90
2022-08-16T22:51:28.635Z,99.90
2022-08-16T22:53:57.051Z,99.90
2022-08-16T22:56:25.080Z,99.90
2022-08-16T22:58:52.753Z,99.90
2022-08-16T23:01:23.621Z,99.90
2022-08-16T23:03:57.297Z,99.90
2022-08-16T23:06:24.797Z,99.90
2022-08-16T23:08:52.217Z,99.90
2022-08-16T23:11:22.882Z,99.90
2022-08-16T23:13:55.525Z,99.90
2022-08-16T23:16:33.062Z,99.90
2022-08-16T23:19:12.782Z,99.90
2022-08-16T23:21:44.427Z,99.90
2022-08-16T23:24:12.637Z,99.90
2022-08-16T23:26:46.442Z,99.90
2022-08-16T23:29:23.157Z,99.90
2022-08-16T23:31:54.274Z,99.90
2022-08-16T23:34:22.519Z,99.90
2022-08-16T23:36:49.473Z,99.90
2022-08-16T23:39:16.635Z,99.90
2022-08-16T23:41:44.577Z,99.90
2022-08-16T23:44:45.570Z,99.90
2022-08-16T23:46:59.050Z,99.90
2022-08-16T23:49:56.076Z,99.90
2022-08-16T23:52:13.257Z,99.90
2022-08-16T23:54:40.409Z,99.90
2022-08-16T23:57:08.503Z,99.90
2022-08-16T23:59:43.764Z,99.90
